বাংলা English Search

Light to moderate rain/thunder showers accompanied by temporary gusty wind & lightning flashes is likely to occur at a few places over Rangpur & Chattogram divisions and at one or two places over Rajshahi, Dhaka, Mymensingh, Khulna, Barishal & Sylhet divisions with moderately heavy falls at isolated places over the country.

METAR

METAR VGHS 291400Z 32003KT 3500 HZ FEW015 SCT100 29/25 Q1003 NOSIG=